<?xml version="1.0" encoding="UTF-8" standalone="no" ?>
<gpx xmlns="http://www.topografix.com/GPX/1/1" xmlns:xsi="http://www.w3.org/2001/XMLSchema-instance" xsi:schemaLocation="http://www.topografix.com/GPX/1/1 http://www.topografix.com/GPX/1/1/gpx.xsd" version="1.1" creator="VisuGPX - https://www.visugpx.com">
  <metadata>
    <name>Du Naizou au Mont Afrique</name>
    <desc><![CDATA[Belle randonnée sans trop de difficultés.]]></desc>
  </metadata>
  <trk>
    <name><![CDATA[2015-10-03 10:51]]></name>
    <desc><![CDATA[<h1>OruxMaps</h1><br /><hr align="center" width="480" style="height: 2px; width: 517px"/><h2>Nom: 2015-10-03 10:51</h2><br /><p>Temps de départ: 10/03/2015 10:51</p><p>Temps d'arrivée: 10/03/2015 14:11</p><p>Distance: 10,4km (03:20)</p><p>Temps déplacement: 02:28</p><p>Vitesse moyenne: 3,1km/h</p><p>Vitesse moyenne: 4,2km/h</p><p>Vitess Max.: 24,1km/h</p><p>Altitude minimale: 447m</p><p>Altitude maximale: 576m</p><p>Vitesse d'élévation: 293,3m/h</p><p>Vitesse de descente: -421,5m/h</p><p>Gain Altitude: 529m</p><p>Perte Altitude: -548m</p><p>Temps d'élévation: 01:48</p><p>Temps de descente: 01:18</p><hr align="center" width="480" style="height: 2px; width: 517px"/>]]></desc>
    <trkseg>
      <trkpt lat="47.29642" lon="4.93819">
        <ele>491.93</ele>
        <time>2015-10-03T08:51:27Z</time>
      </trkpt>
      <trkpt lat="47.29644" lon="4.93793">
        <ele>483.11</ele>
        <time>2015-10-03T08:52:13Z</time>
      </trkpt>
      <trkpt lat="47.29638" lon="4.93767">
        <ele>481.02</ele>
        <time>2015-10-03T08:52:26Z</time>
      </trkpt>
      <trkpt lat="47.29636" lon="4.9374">
        <ele>486.35</ele>
        <time>2015-10-03T08:52:45Z</time>
      </trkpt>
      <trkpt lat="47.29653" lon="4.93728">
        <ele>491.96</ele>
        <time>2015-10-03T08:53:17Z</time>
      </trkpt>
      <trkpt lat="47.29642" lon="4.93752">
        <ele>489.97</ele>
        <time>2015-10-03T08:53:25Z</time>
      </trkpt>
      <trkpt lat="47.29645" lon="4.93714">
        <ele>488.29</ele>
        <time>2015-10-03T08:53:49Z</time>
      </trkpt>
      <trkpt lat="47.29662" lon="4.93704">
        <ele>486.9</ele>
        <time>2015-10-03T08:54:11Z</time>
      </trkpt>
      <trkpt lat="47.2968" lon="4.93694">
        <ele>487.73</ele>
        <time>2015-10-03T08:54:33Z</time>
      </trkpt>
      <trkpt lat="47.29699" lon="4.93693">
        <ele>490.23</ele>
        <time>2015-10-03T08:54:44Z</time>
      </trkpt>
      <trkpt lat="47.29713" lon="4.93674">
        <ele>473.27</ele>
        <time>2015-10-03T08:55:19Z</time>
      </trkpt>
      <trkpt lat="47.29732" lon="4.93671">
        <ele>474.27</ele>
        <time>2015-10-03T08:55:35Z</time>
      </trkpt>
      <trkpt lat="47.2975" lon="4.93663">
        <ele>487.47</ele>
        <time>2015-10-03T08:55:59Z</time>
      </trkpt>
      <trkpt lat="47.29766" lon="4.9365">
        <ele>491.75</ele>
        <time>2015-10-03T08:56:48Z</time>
      </trkpt>
      <trkpt lat="47.29775" lon="4.93627">
        <ele>490.55</ele>
        <time>2015-10-03T08:57:00Z</time>
      </trkpt>
      <trkpt lat="47.29789" lon="4.9361">
        <ele>492.44</ele>
        <time>2015-10-03T08:57:11Z</time>
      </trkpt>
      <trkpt lat="47.29807" lon="4.936">
        <ele>498.49</ele>
        <time>2015-10-03T08:57:31Z</time>
      </trkpt>
      <trkpt lat="47.29822" lon="4.93584">
        <ele>500.25</ele>
        <time>2015-10-03T08:57:48Z</time>
      </trkpt>
      <trkpt lat="47.29832" lon="4.93559">
        <ele>498.01</ele>
        <time>2015-10-03T08:58:09Z</time>
      </trkpt>
      <trkpt lat="47.29846" lon="4.93537">
        <ele>494.41</ele>
        <time>2015-10-03T08:58:29Z</time>
      </trkpt>
      <trkpt lat="47.29858" lon="4.93514">
        <ele>486.97</ele>
        <time>2015-10-03T08:59:06Z</time>
      </trkpt>
      <trkpt lat="47.29874" lon="4.93501">
        <ele>476.02</ele>
        <time>2015-10-03T08:59:29Z</time>
      </trkpt>
      <trkpt lat="47.29887" lon="4.93478">
        <ele>478.9</ele>
        <time>2015-10-03T08:59:53Z</time>
      </trkpt>
      <trkpt lat="47.29898" lon="4.93455">
        <ele>481.78</ele>
        <time>2015-10-03T09:00:09Z</time>
      </trkpt>
      <trkpt lat="47.29913" lon="4.93441">
        <ele>481.32</ele>
        <time>2015-10-03T09:00:19Z</time>
      </trkpt>
      <trkpt lat="47.29927" lon="4.93422">
        <ele>481.22</ele>
        <time>2015-10-03T09:00:27Z</time>
      </trkpt>
      <trkpt lat="47.29943" lon="4.93409">
        <ele>480.31</ele>
        <time>2015-10-03T09:00:38Z</time>
      </trkpt>
      <trkpt lat="47.29963" lon="4.93403">
        <ele>481.77</ele>
        <time>2015-10-03T09:00:40Z</time>
      </trkpt>
      <trkpt lat="47.2996" lon="4.93376">
        <ele>490.94</ele>
        <time>2015-10-03T09:01:01Z</time>
      </trkpt>
      <trkpt lat="47.2996" lon="4.93348">
        <ele>493.15</ele>
        <time>2015-10-03T09:01:22Z</time>
      </trkpt>
      <trkpt lat="47.29971" lon="4.93324">
        <ele>492</ele>
        <time>2015-10-03T09:01:37Z</time>
      </trkpt>
      <trkpt lat="47.29966" lon="4.93298">
        <ele>492.75</ele>
        <time>2015-10-03T09:01:59Z</time>
      </trkpt>
      <trkpt lat="47.29975" lon="4.93272">
        <ele>481.78</ele>
        <time>2015-10-03T09:02:12Z</time>
      </trkpt>
      <trkpt lat="47.29984" lon="4.93248">
        <ele>492.05</ele>
        <time>2015-10-03T09:02:27Z</time>
      </trkpt>
      <trkpt lat="47.2999" lon="4.93223">
        <ele>490.42</ele>
        <time>2015-10-03T09:02:45Z</time>
      </trkpt>
      <trkpt lat="47.29993" lon="4.93197">
        <ele>491.65</ele>
        <time>2015-10-03T09:03:02Z</time>
      </trkpt>
      <trkpt lat="47.29996" lon="4.9317">
        <ele>487.12</ele>
        <time>2015-10-03T09:03:20Z</time>
      </trkpt>
      <trkpt lat="47.29994" lon="4.93142">
        <ele>486.65</ele>
        <time>2015-10-03T09:03:38Z</time>
      </trkpt>
      <trkpt lat="47.30002" lon="4.93118">
        <ele>489.87</ele>
        <time>2015-10-03T09:04:03Z</time>
      </trkpt>
      <trkpt lat="47.30013" lon="4.93096">
        <ele>487.13</ele>
        <time>2015-10-03T09:04:21Z</time>
      </trkpt>
      <trkpt lat="47.30019" lon="4.93069">
        <ele>485.97</ele>
        <time>2015-10-03T09:04:45Z</time>
      </trkpt>
      <trkpt lat="47.30031" lon="4.93047">
        <ele>486.59</ele>
        <time>2015-10-03T09:05:00Z</time>
      </trkpt>
      <trkpt lat="47.30036" lon="4.93021">
        <ele>487.9</ele>
        <time>2015-10-03T09:05:22Z</time>
      </trkpt>
      <trkpt lat="47.30051" lon="4.93005">
        <ele>488.49</ele>
        <time>2015-10-03T09:05:35Z</time>
      </trkpt>
      <trkpt lat="47.3006" lon="4.92981">
        <ele>490.22</ele>
        <time>2015-10-03T09:05:52Z</time>
      </trkpt>
      <trkpt lat="47.30064" lon="4.92953">
        <ele>489.72</ele>
        <time>2015-10-03T09:06:07Z</time>
      </trkpt>
      <trkpt lat="47.30055" lon="4.92927">
        <ele>493.69</ele>
        <time>2015-10-03T09:06:30Z</time>
      </trkpt>
      <trkpt lat="47.30056" lon="4.929">
        <ele>493.89</ele>
        <time>2015-10-03T09:06:46Z</time>
      </trkpt>
      <trkpt lat="47.30044" lon="4.9288">
        <ele>496.09</ele>
        <time>2015-10-03T09:07:02Z</time>
      </trkpt>
      <trkpt lat="47.30042" lon="4.92853">
        <ele>493.59</ele>
        <time>2015-10-03T09:07:21Z</time>
      </trkpt>
      <trkpt lat="47.30054" lon="4.92828">
        <ele>492.79</ele>
        <time>2015-10-03T09:07:36Z</time>
      </trkpt>
      <trkpt lat="47.30043" lon="4.92806">
        <ele>484.39</ele>
        <time>2015-10-03T09:07:51Z</time>
      </trkpt>
      <trkpt lat="47.30034" lon="4.92783">
        <ele>491.46</ele>
        <time>2015-10-03T09:08:32Z</time>
      </trkpt>
      <trkpt lat="47.30029" lon="4.92756">
        <ele>483.93</ele>
        <time>2015-10-03T09:10:55Z</time>
      </trkpt>
      <trkpt lat="47.30017" lon="4.92683">
        <ele>483.93</ele>
        <time>2015-10-03T09:11:23Z</time>
      </trkpt>
      <trkpt lat="47.29976" lon="4.92634">
        <ele>485.93</ele>
        <time>2015-10-03T09:12:14Z</time>
      </trkpt>
      <trkpt lat="47.29979" lon="4.92594">
        <ele>485.93</ele>
        <time>2015-10-03T09:12:35Z</time>
      </trkpt>
      <trkpt lat="47.29961" lon="4.9258">
        <ele>481.88</ele>
        <time>2015-10-03T09:12:42Z</time>
      </trkpt>
      <trkpt lat="47.29981" lon="4.92571">
        <ele>482.55</ele>
        <time>2015-10-03T09:12:45Z</time>
      </trkpt>
      <trkpt lat="47.29963" lon="4.92581">
        <ele>481.22</ele>
        <time>2015-10-03T09:12:49Z</time>
      </trkpt>
      <trkpt lat="47.29948" lon="4.92561">
        <ele>473.42</ele>
        <time>2015-10-03T09:13:16Z</time>
      </trkpt>
      <trkpt lat="47.29891" lon="4.92587">
        <ele>472.93</ele>
        <time>2015-10-03T09:13:34Z</time>
      </trkpt>
      <trkpt lat="47.29912" lon="4.92576">
        <ele>474.37</ele>
        <time>2015-10-03T09:13:38Z</time>
      </trkpt>
      <trkpt lat="47.29926" lon="4.92557">
        <ele>485.54</ele>
        <time>2015-10-03T09:14:01Z</time>
      </trkpt>
      <trkpt lat="47.29947" lon="4.9255">
        <ele>485.21</ele>
        <time>2015-10-03T09:14:13Z</time>
      </trkpt>
      <trkpt lat="47.29934" lon="4.92528">
        <ele>483.84</ele>
        <time>2015-10-03T09:14:19Z</time>
      </trkpt>
      <trkpt lat="47.29959" lon="4.92525">
        <ele>483.6</ele>
        <time>2015-10-03T09:14:33Z</time>
      </trkpt>
      <trkpt lat="47.29981" lon="4.92528">
        <ele>476.74</ele>
        <time>2015-10-03T09:15:00Z</time>
      </trkpt>
      <trkpt lat="47.2996" lon="4.92538">
        <ele>475.41</ele>
        <time>2015-10-03T09:15:03Z</time>
      </trkpt>
      <trkpt lat="47.29979" lon="4.92529">
        <ele>486.58</ele>
        <time>2015-10-03T09:15:21Z</time>
      </trkpt>
      <trkpt lat="47.29955" lon="4.92544">
        <ele>497.93</ele>
        <time>2015-10-03T09:15:59Z</time>
      </trkpt>
      <trkpt lat="47.29972" lon="4.92528">
        <ele>496.93</ele>
        <time>2015-10-03T09:16:02Z</time>
      </trkpt>
      <trkpt lat="47.2998" lon="4.92553">
        <ele>487.79</ele>
        <time>2015-10-03T09:16:16Z</time>
      </trkpt>
      <trkpt lat="47.29947" lon="4.92563">
        <ele>480.23</ele>
        <time>2015-10-03T09:16:27Z</time>
      </trkpt>
      <trkpt lat="47.29998" lon="4.92553">
        <ele>472.34</ele>
        <time>2015-10-03T09:16:30Z</time>
      </trkpt>
      <trkpt lat="47.29977" lon="4.92553">
        <ele>476.94</ele>
        <time>2015-10-03T09:16:59Z</time>
      </trkpt>
      <trkpt lat="47.2996" lon="4.92539">
        <ele>483.48</ele>
        <time>2015-10-03T09:17:11Z</time>
      </trkpt>
      <trkpt lat="47.29979" lon="4.92533">
        <ele>485.38</ele>
        <time>2015-10-03T09:17:18Z</time>
      </trkpt>
      <trkpt lat="47.29962" lon="4.92552">
        <ele>495.93</ele>
        <time>2015-10-03T09:18:31Z</time>
      </trkpt>
      <trkpt lat="47.29961" lon="4.92551">
        <ele>494.93</ele>
        <time>2015-10-03T09:19:43Z</time>
      </trkpt>
      <trkpt lat="47.29961" lon="4.92551">
        <ele>494.93</ele>
        <time>2015-10-03T09:19:54Z</time>
      </trkpt>
      <trkpt lat="47.2996" lon="4.92548">
        <ele>492.93</ele>
        <time>2015-10-03T09:20:50Z</time>
      </trkpt>
      <trkpt lat="47.29927" lon="4.92539">
        <ele>488.68</ele>
        <time>2015-10-03T09:21:11Z</time>
      </trkpt>
      <trkpt lat="47.29904" lon="4.92532">
        <ele>483.65</ele>
        <time>2015-10-03T09:21:14Z</time>
      </trkpt>
      <trkpt lat="47.29876" lon="4.92532">
        <ele>478.61</ele>
        <time>2015-10-03T09:21:16Z</time>
      </trkpt>
      <trkpt lat="47.29853" lon="4.92521">
        <ele>469.28</ele>
        <time>2015-10-03T09:21:20Z</time>
      </trkpt>
      <trkpt lat="47.2981" lon="4.92424">
        <ele>453.43</ele>
        <time>2015-10-03T09:21:52Z</time>
      </trkpt>
      <trkpt lat="47.29786" lon="4.9242">
        <ele>447.05</ele>
        <time>2015-10-03T09:21:54Z</time>
      </trkpt>
      <trkpt lat="47.29805" lon="4.92404">
        <ele>448.42</ele>
        <time>2015-10-03T09:22:00Z</time>
      </trkpt>
      <trkpt lat="47.29794" lon="4.92381">
        <ele>450.23</ele>
        <time>2015-10-03T09:22:11Z</time>
      </trkpt>
      <trkpt lat="47.29771" lon="4.92381">
        <ele>452.57</ele>
        <time>2015-10-03T09:22:19Z</time>
      </trkpt>
      <trkpt lat="47.29792" lon="4.9237">
        <ele>453.34</ele>
        <time>2015-10-03T09:22:21Z</time>
      </trkpt>
      <trkpt lat="47.29778" lon="4.92348">
        <ele>455.1</ele>
        <time>2015-10-03T09:22:31Z</time>
      </trkpt>
      <trkpt lat="47.29778" lon="4.92317">
        <ele>462.77</ele>
        <time>2015-10-03T09:22:47Z</time>
      </trkpt>
      <trkpt lat="47.29751" lon="4.92298">
        <ele>473.43</ele>
        <time>2015-10-03T09:23:17Z</time>
      </trkpt>
      <trkpt lat="47.29768" lon="4.92281">
        <ele>476.86</ele>
        <time>2015-10-03T09:23:30Z</time>
      </trkpt>
      <trkpt lat="47.29761" lon="4.92254">
        <ele>485.11</ele>
        <time>2015-10-03T09:23:34Z</time>
      </trkpt>
      <trkpt lat="47.29741" lon="4.92256">
        <ele>485.72</ele>
        <time>2015-10-03T09:23:36Z</time>
      </trkpt>
      <trkpt lat="47.29721" lon="4.9226">
        <ele>483.88</ele>
        <time>2015-10-03T09:23:38Z</time>
      </trkpt>
      <trkpt lat="47.29718" lon="4.92287">
        <ele>485.11</ele>
        <time>2015-10-03T09:23:43Z</time>
      </trkpt>
      <trkpt lat="47.29699" lon="4.92279">
        <ele>487.09</ele>
        <time>2015-10-03T09:24:25Z</time>
      </trkpt>
      <trkpt lat="47.29679" lon="4.92275">
        <ele>481.7</ele>
        <time>2015-10-03T09:24:47Z</time>
      </trkpt>
      <trkpt lat="47.29642" lon="4.92281">
        <ele>495.93</ele>
        <time>2015-10-03T09:25:28Z</time>
      </trkpt>
      <trkpt lat="47.2958" lon="4.92276">
        <ele>485.93</ele>
        <time>2015-10-03T09:26:39Z</time>
      </trkpt>
      <trkpt lat="47.29558" lon="4.92268">
        <ele>485.93</ele>
        <time>2015-10-03T09:26:43Z</time>
      </trkpt>
      <trkpt lat="47.29539" lon="4.92287">
        <ele>486.93</ele>
        <time>2015-10-03T09:27:16Z</time>
      </trkpt>
      <trkpt lat="47.29541" lon="4.92277">
        <ele>484.93</ele>
        <time>2015-10-03T09:27:39Z</time>
      </trkpt>
      <trkpt lat="47.29521" lon="4.92272">
        <ele>483.43</ele>
        <time>2015-10-03T09:27:49Z</time>
      </trkpt>
      <trkpt lat="47.29534" lon="4.92292">
        <ele>481.83</ele>
        <time>2015-10-03T09:27:59Z</time>
      </trkpt>
      <trkpt lat="47.29522" lon="4.92273">
        <ele>480.37</ele>
        <time>2015-10-03T09:28:07Z</time>
      </trkpt>
      <trkpt lat="47.29499" lon="4.92265">
        <ele>479.64</ele>
        <time>2015-10-03T09:28:11Z</time>
      </trkpt>
      <trkpt lat="47.29527" lon="4.92258">
        <ele>478.27</ele>
        <time>2015-10-03T09:28:14Z</time>
      </trkpt>
      <trkpt lat="47.2951" lon="4.92245">
        <ele>478.06</ele>
        <time>2015-10-03T09:28:20Z</time>
      </trkpt>
      <trkpt lat="47.29471" lon="4.92241">
        <ele>475.32</ele>
        <time>2015-10-03T09:28:28Z</time>
      </trkpt>
      <trkpt lat="47.29461" lon="4.92214">
        <ele>474.93</ele>
        <time>2015-10-03T09:28:40Z</time>
      </trkpt>
      <trkpt lat="47.29484" lon="4.92249">
        <ele>474.43</ele>
        <time>2015-10-03T09:28:41Z</time>
      </trkpt>
      <trkpt lat="47.29452" lon="4.92206">
        <ele>482.93</ele>
        <time>2015-10-03T09:29:14Z</time>
      </trkpt>
      <trkpt lat="47.29468" lon="4.92195">
        <ele>484.43</ele>
        <time>2015-10-03T09:29:18Z</time>
      </trkpt>
      <trkpt lat="47.29453" lon="4.92175">
        <ele>489.83</ele>
        <time>2015-10-03T09:29:24Z</time>
      </trkpt>
      <trkpt lat="47.29437" lon="4.92162">
        <ele>491.93</ele>
        <time>2015-10-03T09:29:35Z</time>
      </trkpt>
      <trkpt lat="47.29421" lon="4.92145">
        <ele>483.69</ele>
        <time>2015-10-03T09:29:44Z</time>
      </trkpt>
      <trkpt lat="47.29401" lon="4.92155">
        <ele>485.86</ele>
        <time>2015-10-03T09:29:49Z</time>
      </trkpt>
      <trkpt lat="47.2938" lon="4.92159">
        <ele>484.01</ele>
        <time>2015-10-03T09:29:56Z</time>
      </trkpt>
      <trkpt lat="47.29396" lon="4.92141">
        <ele>482.27</ele>
        <time>2015-10-03T09:30:08Z</time>
      </trkpt>
      <trkpt lat="47.29364" lon="4.92132">
        <ele>501.08</ele>
        <time>2015-10-03T09:31:04Z</time>
      </trkpt>
      <trkpt lat="47.29386" lon="4.92109">
        <ele>512.25</ele>
        <time>2015-10-03T09:31:31Z</time>
      </trkpt>
      <trkpt lat="47.29366" lon="4.9211">
        <ele>510.99</ele>
        <time>2015-10-03T09:31:55Z</time>
      </trkpt>
      <trkpt lat="47.29347" lon="4.92107">
        <ele>510.47</ele>
        <time>2015-10-03T09:32:03Z</time>
      </trkpt>
      <trkpt lat="47.29329" lon="4.92102">
        <ele>508.12</ele>
        <time>2015-10-03T09:32:14Z</time>
      </trkpt>
      <trkpt lat="47.29314" lon="4.92082">
        <ele>505.51</ele>
        <time>2015-10-03T09:32:20Z</time>
      </trkpt>
      <trkpt lat="47.29304" lon="4.92056">
        <ele>507.49</ele>
        <time>2015-10-03T09:32:35Z</time>
      </trkpt>
      <trkpt lat="47.29286" lon="4.92064">
        <ele>505.89</ele>
        <time>2015-10-03T09:32:53Z</time>
      </trkpt>
      <trkpt lat="47.29273" lon="4.92083">
        <ele>503.82</ele>
        <time>2015-10-03T09:33:00Z</time>
      </trkpt>
      <trkpt lat="47.29257" lon="4.92069">
        <ele>507.95</ele>
        <time>2015-10-03T09:33:19Z</time>
      </trkpt>
      <trkpt lat="47.29275" lon="4.92062">
        <ele>512.11</ele>
        <time>2015-10-03T09:33:31Z</time>
      </trkpt>
      <trkpt lat="47.29253" lon="4.92068">
        <ele>512.88</ele>
        <time>2015-10-03T09:33:35Z</time>
      </trkpt>
      <trkpt lat="47.29223" lon="4.92035">
        <ele>510.99</ele>
        <time>2015-10-03T09:33:41Z</time>
      </trkpt>
      <trkpt lat="47.29173" lon="4.92041">
        <ele>504.93</ele>
        <time>2015-10-03T09:34:31Z</time>
      </trkpt>
      <trkpt lat="47.29192" lon="4.92036">
        <ele>508.51</ele>
        <time>2015-10-03T09:34:37Z</time>
      </trkpt>
      <trkpt lat="47.29177" lon="4.92008">
        <ele>506.9</ele>
        <time>2015-10-03T09:35:02Z</time>
      </trkpt>
      <trkpt lat="47.29166" lon="4.92035">
        <ele>499.77</ele>
        <time>2015-10-03T09:35:16Z</time>
      </trkpt>
      <trkpt lat="47.29148" lon="4.92045">
        <ele>497.48</ele>
        <time>2015-10-03T09:36:57Z</time>
      </trkpt>
      <trkpt lat="47.29105" lon="4.92027">
        <ele>494.93</ele>
        <time>2015-10-03T09:37:22Z</time>
      </trkpt>
      <trkpt lat="47.28972" lon="4.91956">
        <ele>503.43</ele>
        <time>2015-10-03T09:42:30Z</time>
      </trkpt>
      <trkpt lat="47.28993" lon="4.91958">
        <ele>483.05</ele>
        <time>2015-10-03T09:42:32Z</time>
      </trkpt>
      <trkpt lat="47.28974" lon="4.91948">
        <ele>504.66</ele>
        <time>2015-10-03T09:43:03Z</time>
      </trkpt>
      <trkpt lat="47.28956" lon="4.91921">
        <ele>500.47</ele>
        <time>2015-10-03T09:43:07Z</time>
      </trkpt>
      <trkpt lat="47.28938" lon="4.91909">
        <ele>499.32</ele>
        <time>2015-10-03T09:43:09Z</time>
      </trkpt>
      <trkpt lat="47.28963" lon="4.91927">
        <ele>500.62</ele>
        <time>2015-10-03T09:43:10Z</time>
      </trkpt>
      <trkpt lat="47.28948" lon="4.91907">
        <ele>497.51</ele>
        <time>2015-10-03T09:44:00Z</time>
      </trkpt>
      <trkpt lat="47.2893" lon="4.91901">
        <ele>497.18</ele>
        <time>2015-10-03T09:44:19Z</time>
      </trkpt>
      <trkpt lat="47.28911" lon="4.91896">
        <ele>495.34</ele>
        <time>2015-10-03T09:44:42Z</time>
      </trkpt>
      <trkpt lat="47.28894" lon="4.91887">
        <ele>492.24</ele>
        <time>2015-10-03T09:44:54Z</time>
      </trkpt>
      <trkpt lat="47.28875" lon="4.91873">
        <ele>495.43</ele>
        <time>2015-10-03T09:45:46Z</time>
      </trkpt>
      <trkpt lat="47.28856" lon="4.91857">
        <ele>496.13</ele>
        <time>2015-10-03T09:45:51Z</time>
      </trkpt>
      <trkpt lat="47.28837" lon="4.91847">
        <ele>498.92</ele>
        <time>2015-10-03T09:46:00Z</time>
      </trkpt>
      <trkpt lat="47.28817" lon="4.91846">
        <ele>500.99</ele>
        <time>2015-10-03T09:46:12Z</time>
      </trkpt>
      <trkpt lat="47.28797" lon="4.91841">
        <ele>499.06</ele>
        <time>2015-10-03T09:46:24Z</time>
      </trkpt>
      <trkpt lat="47.28778" lon="4.91834">
        <ele>492.27</ele>
        <time>2015-10-03T09:46:59Z</time>
      </trkpt>
      <trkpt lat="47.28761" lon="4.91825">
        <ele>493.4</ele>
        <time>2015-10-03T09:47:08Z</time>
      </trkpt>
      <trkpt lat="47.28751" lon="4.9185">
        <ele>494.54</ele>
        <time>2015-10-03T09:47:35Z</time>
      </trkpt>
      <trkpt lat="47.28736" lon="4.91864">
        <ele>493.97</ele>
        <time>2015-10-03T09:47:55Z</time>
      </trkpt>
      <trkpt lat="47.28714" lon="4.9185">
        <ele>493.17</ele>
        <time>2015-10-03T09:48:04Z</time>
      </trkpt>
      <trkpt lat="47.28695" lon="4.91841">
        <ele>492.57</ele>
        <time>2015-10-03T09:48:17Z</time>
      </trkpt>
      <trkpt lat="47.28678" lon="4.91832">
        <ele>496.04</ele>
        <time>2015-10-03T09:48:30Z</time>
      </trkpt>
      <trkpt lat="47.28659" lon="4.91826">
        <ele>493.06</ele>
        <time>2015-10-03T09:48:47Z</time>
      </trkpt>
      <trkpt lat="47.2864" lon="4.91825">
        <ele>499.84</ele>
        <time>2015-10-03T09:49:00Z</time>
      </trkpt>
      <trkpt lat="47.28647" lon="4.91852">
        <ele>501.87</ele>
        <time>2015-10-03T09:49:34Z</time>
      </trkpt>
      <trkpt lat="47.28628" lon="4.91842">
        <ele>495.77</ele>
        <time>2015-10-03T09:50:24Z</time>
      </trkpt>
      <trkpt lat="47.28609" lon="4.91833">
        <ele>496.45</ele>
        <time>2015-10-03T09:50:31Z</time>
      </trkpt>
      <trkpt lat="47.28588" lon="4.91827">
        <ele>497.88</ele>
        <time>2015-10-03T09:50:43Z</time>
      </trkpt>
      <trkpt lat="47.28565" lon="4.91821">
        <ele>500.76</ele>
        <time>2015-10-03T09:51:00Z</time>
      </trkpt>
      <trkpt lat="47.28545" lon="4.91814">
        <ele>504.43</ele>
        <time>2015-10-03T09:54:48Z</time>
      </trkpt>
      <trkpt lat="47.28526" lon="4.9181">
        <ele>504.09</ele>
        <time>2015-10-03T09:54:52Z</time>
      </trkpt>
      <trkpt lat="47.28508" lon="4.91803">
        <ele>509.06</ele>
        <time>2015-10-03T09:54:58Z</time>
      </trkpt>
      <trkpt lat="47.28488" lon="4.91799">
        <ele>500.85</ele>
        <time>2015-10-03T09:55:07Z</time>
      </trkpt>
      <trkpt lat="47.28471" lon="4.91812">
        <ele>506.9</ele>
        <time>2015-10-03T09:55:18Z</time>
      </trkpt>
      <trkpt lat="47.28451" lon="4.91807">
        <ele>504.3</ele>
        <time>2015-10-03T09:56:11Z</time>
      </trkpt>
      <trkpt lat="47.28432" lon="4.91807">
        <ele>500.13</ele>
        <time>2015-10-03T09:56:16Z</time>
      </trkpt>
      <trkpt lat="47.28414" lon="4.91798">
        <ele>498.37</ele>
        <time>2015-10-03T09:56:29Z</time>
      </trkpt>
      <trkpt lat="47.28397" lon="4.9179">
        <ele>500.45</ele>
        <time>2015-10-03T09:56:41Z</time>
      </trkpt>
      <trkpt lat="47.2838" lon="4.91772">
        <ele>497.93</ele>
        <time>2015-10-03T09:57:54Z</time>
      </trkpt>
      <trkpt lat="47.28362" lon="4.91771">
        <ele>502.39</ele>
        <time>2015-10-03T09:58:03Z</time>
      </trkpt>
      <trkpt lat="47.28345" lon="4.91761">
        <ele>501.42</ele>
        <time>2015-10-03T09:58:33Z</time>
      </trkpt>
      <trkpt lat="47.28327" lon="4.91754">
        <ele>501.08</ele>
        <time>2015-10-03T09:58:44Z</time>
      </trkpt>
      <trkpt lat="47.28309" lon="4.91749">
        <ele>499.69</ele>
        <time>2015-10-03T09:59:07Z</time>
      </trkpt>
      <trkpt lat="47.28291" lon="4.91745">
        <ele>509.84</ele>
        <time>2015-10-03T10:00:35Z</time>
      </trkpt>
      <trkpt lat="47.28246" lon="4.91753">
        <ele>512.93</ele>
        <time>2015-10-03T10:01:26Z</time>
      </trkpt>
      <trkpt lat="47.28227" lon="4.91765">
        <ele>508.35</ele>
        <time>2015-10-03T10:02:08Z</time>
      </trkpt>
      <trkpt lat="47.28188" lon="4.91772">
        <ele>517.93</ele>
        <time>2015-10-03T10:02:38Z</time>
      </trkpt>
      <trkpt lat="47.28169" lon="4.91773">
        <ele>524.22</ele>
        <time>2015-10-03T10:02:59Z</time>
      </trkpt>
      <trkpt lat="47.28164" lon="4.91768">
        <ele>518.93</ele>
        <time>2015-10-03T10:03:36Z</time>
      </trkpt>
      <trkpt lat="47.28146" lon="4.91769">
        <ele>527.95</ele>
        <time>2015-10-03T10:03:52Z</time>
      </trkpt>
      <trkpt lat="47.28128" lon="4.91763">
        <ele>526.69</ele>
        <time>2015-10-03T10:04:18Z</time>
      </trkpt>
      <trkpt lat="47.28107" lon="4.9176">
        <ele>520.89</ele>
        <time>2015-10-03T10:04:30Z</time>
      </trkpt>
      <trkpt lat="47.28089" lon="4.91768">
        <ele>527.99</ele>
        <time>2015-10-03T10:04:55Z</time>
      </trkpt>
      <trkpt lat="47.28073" lon="4.91757">
        <ele>527.83</ele>
        <time>2015-10-03T10:05:07Z</time>
      </trkpt>
      <trkpt lat="47.28056" lon="4.91737">
        <ele>530.62</ele>
        <time>2015-10-03T10:05:26Z</time>
      </trkpt>
      <trkpt lat="47.28038" lon="4.91734">
        <ele>524.67</ele>
        <time>2015-10-03T10:05:44Z</time>
      </trkpt>
      <trkpt lat="47.28029" lon="4.91708">
        <ele>532.85</ele>
        <time>2015-10-03T10:06:22Z</time>
      </trkpt>
      <trkpt lat="47.2801" lon="4.91704">
        <ele>521.4</ele>
        <time>2015-10-03T10:07:07Z</time>
      </trkpt>
      <trkpt lat="47.27997" lon="4.91723">
        <ele>523.76</ele>
        <time>2015-10-03T10:07:18Z</time>
      </trkpt>
      <trkpt lat="47.27981" lon="4.91737">
        <ele>523.84</ele>
        <time>2015-10-03T10:07:33Z</time>
      </trkpt>
      <trkpt lat="47.27958" lon="4.91724">
        <ele>522.21</ele>
        <time>2015-10-03T10:07:45Z</time>
      </trkpt>
      <trkpt lat="47.27961" lon="4.91754">
        <ele>516.82</ele>
        <time>2015-10-03T10:07:53Z</time>
      </trkpt>
      <trkpt lat="47.2796" lon="4.91781">
        <ele>517.2</ele>
        <time>2015-10-03T10:08:11Z</time>
      </trkpt>
      <trkpt lat="47.27951" lon="4.91807">
        <ele>511.96</ele>
        <time>2015-10-03T10:08:30Z</time>
      </trkpt>
      <trkpt lat="47.27946" lon="4.91834">
        <ele>509.31</ele>
        <time>2015-10-03T10:08:48Z</time>
      </trkpt>
      <trkpt lat="47.2794" lon="4.91859">
        <ele>509.15</ele>
        <time>2015-10-03T10:09:03Z</time>
      </trkpt>
      <trkpt lat="47.27937" lon="4.91886">
        <ele>514.01</ele>
        <time>2015-10-03T10:09:17Z</time>
      </trkpt>
      <trkpt lat="47.27929" lon="4.9191">
        <ele>527.48</ele>
        <time>2015-10-03T10:10:18Z</time>
      </trkpt>
      <trkpt lat="47.27932" lon="4.91937">
        <ele>523.13</ele>
        <time>2015-10-03T10:10:32Z</time>
      </trkpt>
      <trkpt lat="47.27942" lon="4.91959">
        <ele>529.12</ele>
        <time>2015-10-03T10:10:44Z</time>
      </trkpt>
      <trkpt lat="47.27955" lon="4.9198">
        <ele>518.44</ele>
        <time>2015-10-03T10:11:17Z</time>
      </trkpt>
      <trkpt lat="47.27959" lon="4.92006">
        <ele>525.15</ele>
        <time>2015-10-03T10:11:30Z</time>
      </trkpt>
      <trkpt lat="47.27967" lon="4.92033">
        <ele>530.57</ele>
        <time>2015-10-03T10:11:49Z</time>
      </trkpt>
      <trkpt lat="47.27973" lon="4.92059">
        <ele>531.89</ele>
        <time>2015-10-03T10:12:02Z</time>
      </trkpt>
      <trkpt lat="47.27987" lon="4.92075">
        <ele>527.01</ele>
        <time>2015-10-03T10:12:32Z</time>
      </trkpt>
      <trkpt lat="47.28001" lon="4.92095">
        <ele>525.01</ele>
        <time>2015-10-03T10:12:47Z</time>
      </trkpt>
      <trkpt lat="47.2802" lon="4.92102">
        <ele>525.11</ele>
        <time>2015-10-03T10:13:09Z</time>
      </trkpt>
      <trkpt lat="47.28035" lon="4.92118">
        <ele>514.47</ele>
        <time>2015-10-03T10:13:27Z</time>
      </trkpt>
      <trkpt lat="47.28052" lon="4.92124">
        <ele>499.43</ele>
        <time>2015-10-03T10:14:08Z</time>
      </trkpt>
      <trkpt lat="47.28068" lon="4.9214">
        <ele>505.43</ele>
        <time>2015-10-03T10:14:22Z</time>
      </trkpt>
      <trkpt lat="47.28082" lon="4.92158">
        <ele>513.86</ele>
        <time>2015-10-03T10:14:35Z</time>
      </trkpt>
      <trkpt lat="47.28082" lon="4.92187">
        <ele>522.93</ele>
        <time>2015-10-03T10:16:01Z</time>
      </trkpt>
      <trkpt lat="47.28133" lon="4.92221">
        <ele>504.93</ele>
        <time>2015-10-03T10:16:59Z</time>
      </trkpt>
      <trkpt lat="47.28148" lon="4.92238">
        <ele>506.47</ele>
        <time>2015-10-03T10:17:19Z</time>
      </trkpt>
      <trkpt lat="47.28149" lon="4.92238">
        <ele>511.93</ele>
        <time>2015-10-03T10:18:00Z</time>
      </trkpt>
      <trkpt lat="47.28165" lon="4.92255">
        <ele>513.3</ele>
        <time>2015-10-03T10:18:21Z</time>
      </trkpt>
      <trkpt lat="47.28191" lon="4.92284">
        <ele>512.93</ele>
        <time>2015-10-03T10:19:07Z</time>
      </trkpt>
      <trkpt lat="47.28202" lon="4.92306">
        <ele>518.48</ele>
        <time>2015-10-03T10:19:20Z</time>
      </trkpt>
      <trkpt lat="47.28217" lon="4.92322">
        <ele>521.44</ele>
        <time>2015-10-03T10:19:42Z</time>
      </trkpt>
      <trkpt lat="47.28232" lon="4.92337">
        <ele>528.44</ele>
        <time>2015-10-03T10:20:50Z</time>
      </trkpt>
      <trkpt lat="47.28246" lon="4.92355">
        <ele>524.09</ele>
        <time>2015-10-03T10:21:06Z</time>
      </trkpt>
      <trkpt lat="47.2826" lon="4.92374">
        <ele>524.71</ele>
        <time>2015-10-03T10:21:25Z</time>
      </trkpt>
      <trkpt lat="47.28263" lon="4.92401">
        <ele>526.55</ele>
        <time>2015-10-03T10:22:09Z</time>
      </trkpt>
      <trkpt lat="47.28278" lon="4.92417">
        <ele>533.2</ele>
        <time>2015-10-03T10:22:21Z</time>
      </trkpt>
      <trkpt lat="47.28296" lon="4.92429">
        <ele>530.85</ele>
        <time>2015-10-03T10:22:35Z</time>
      </trkpt>
      <trkpt lat="47.2831" lon="4.92447">
        <ele>531.43</ele>
        <time>2015-10-03T10:23:37Z</time>
      </trkpt>
      <trkpt lat="47.28325" lon="4.92463">
        <ele>534.81</ele>
        <time>2015-10-03T10:23:52Z</time>
      </trkpt>
      <trkpt lat="47.2834" lon="4.92481">
        <ele>536.3</ele>
        <time>2015-10-03T10:24:36Z</time>
      </trkpt>
      <trkpt lat="47.28356" lon="4.92495">
        <ele>535.91</ele>
        <time>2015-10-03T10:24:49Z</time>
      </trkpt>
      <trkpt lat="47.28371" lon="4.92511">
        <ele>535.93</ele>
        <time>2015-10-03T10:25:07Z</time>
      </trkpt>
      <trkpt lat="47.28379" lon="4.92536">
        <ele>549.48</ele>
        <time>2015-10-03T10:26:29Z</time>
      </trkpt>
      <trkpt lat="47.28407" lon="4.92575">
        <ele>550.93</ele>
        <time>2015-10-03T10:26:56Z</time>
      </trkpt>
      <trkpt lat="47.28437" lon="4.92613">
        <ele>549.93</ele>
        <time>2015-10-03T10:28:06Z</time>
      </trkpt>
      <trkpt lat="47.28457" lon="4.92601">
        <ele>545.29</ele>
        <time>2015-10-03T10:28:32Z</time>
      </trkpt>
      <trkpt lat="47.28471" lon="4.92618">
        <ele>544.45</ele>
        <time>2015-10-03T10:28:53Z</time>
      </trkpt>
      <trkpt lat="47.28482" lon="4.92628">
        <ele>541.93</ele>
        <time>2015-10-03T10:29:16Z</time>
      </trkpt>
      <trkpt lat="47.28478" lon="4.92655">
        <ele>541</ele>
        <time>2015-10-03T10:29:47Z</time>
      </trkpt>
      <trkpt lat="47.28473" lon="4.92682">
        <ele>540.29</ele>
        <time>2015-10-03T10:29:58Z</time>
      </trkpt>
      <trkpt lat="47.28491" lon="4.92684">
        <ele>547.98</ele>
        <time>2015-10-03T10:31:11Z</time>
      </trkpt>
      <trkpt lat="47.28472" lon="4.92676">
        <ele>548.42</ele>
        <time>2015-10-03T10:31:35Z</time>
      </trkpt>
      <trkpt lat="47.28472" lon="4.92678">
        <ele>557.93</ele>
        <time>2015-10-03T10:38:10Z</time>
      </trkpt>
      <trkpt lat="47.2838" lon="4.92741">
        <ele>566.93</ele>
        <time>2015-10-03T10:39:41Z</time>
      </trkpt>
      <trkpt lat="47.28364" lon="4.92756">
        <ele>566.83</ele>
        <time>2015-10-03T10:39:59Z</time>
      </trkpt>
      <trkpt lat="47.28357" lon="4.92792">
        <ele>561.93</ele>
        <time>2015-10-03T10:40:29Z</time>
      </trkpt>
      <trkpt lat="47.2835" lon="4.92818">
        <ele>561.13</ele>
        <time>2015-10-03T10:41:21Z</time>
      </trkpt>
      <trkpt lat="47.28339" lon="4.92841">
        <ele>562.45</ele>
        <time>2015-10-03T10:41:31Z</time>
      </trkpt>
      <trkpt lat="47.28324" lon="4.92863">
        <ele>564.47</ele>
        <time>2015-10-03T10:41:44Z</time>
      </trkpt>
      <trkpt lat="47.28317" lon="4.92889">
        <ele>563.83</ele>
        <time>2015-10-03T10:42:06Z</time>
      </trkpt>
      <trkpt lat="47.28299" lon="4.92885">
        <ele>558.08</ele>
        <time>2015-10-03T10:42:23Z</time>
      </trkpt>
      <trkpt lat="47.28282" lon="4.9287">
        <ele>556.86</ele>
        <time>2015-10-03T10:42:36Z</time>
      </trkpt>
      <trkpt lat="47.28287" lon="4.92844">
        <ele>545.96</ele>
        <time>2015-10-03T10:43:26Z</time>
      </trkpt>
      <trkpt lat="47.28273" lon="4.92828">
        <ele>542.3</ele>
        <time>2015-10-03T10:44:03Z</time>
      </trkpt>
      <trkpt lat="47.28256" lon="4.92838">
        <ele>550</ele>
        <time>2015-10-03T10:44:30Z</time>
      </trkpt>
      <trkpt lat="47.28245" lon="4.92815">
        <ele>544.81</ele>
        <time>2015-10-03T10:44:34Z</time>
      </trkpt>
      <trkpt lat="47.28239" lon="4.92841">
        <ele>550.96</ele>
        <time>2015-10-03T10:44:46Z</time>
      </trkpt>
      <trkpt lat="47.28222" lon="4.9283">
        <ele>545.6</ele>
        <time>2015-10-03T10:45:03Z</time>
      </trkpt>
      <trkpt lat="47.28206" lon="4.92817">
        <ele>544.02</ele>
        <time>2015-10-03T10:45:17Z</time>
      </trkpt>
      <trkpt lat="47.28195" lon="4.92839">
        <ele>562.77</ele>
        <time>2015-10-03T10:45:44Z</time>
      </trkpt>
      <trkpt lat="47.28177" lon="4.9285">
        <ele>555.02</ele>
        <time>2015-10-03T10:46:20Z</time>
      </trkpt>
      <trkpt lat="47.28157" lon="4.9285">
        <ele>558.8</ele>
        <time>2015-10-03T10:46:55Z</time>
      </trkpt>
      <trkpt lat="47.28142" lon="4.92869">
        <ele>558.89</ele>
        <time>2015-10-03T10:47:05Z</time>
      </trkpt>
      <trkpt lat="47.28122" lon="4.92879">
        <ele>556.51</ele>
        <time>2015-10-03T10:47:20Z</time>
      </trkpt>
      <trkpt lat="47.28105" lon="4.92863">
        <ele>549.72</ele>
        <time>2015-10-03T10:47:31Z</time>
      </trkpt>
      <trkpt lat="47.28085" lon="4.92862">
        <ele>569.37</ele>
        <time>2015-10-03T10:48:27Z</time>
      </trkpt>
      <trkpt lat="47.28066" lon="4.92863">
        <ele>569.94</ele>
        <time>2015-10-03T10:48:32Z</time>
      </trkpt>
      <trkpt lat="47.28048" lon="4.92875">
        <ele>566.1</ele>
        <time>2015-10-03T10:48:41Z</time>
      </trkpt>
      <trkpt lat="47.28035" lon="4.92849">
        <ele>562.43</ele>
        <time>2015-10-03T10:49:01Z</time>
      </trkpt>
      <trkpt lat="47.28016" lon="4.92856">
        <ele>569.26</ele>
        <time>2015-10-03T10:49:39Z</time>
      </trkpt>
      <trkpt lat="47.27996" lon="4.92859">
        <ele>563.12</ele>
        <time>2015-10-03T10:49:54Z</time>
      </trkpt>
      <trkpt lat="47.2798" lon="4.92846">
        <ele>564.81</ele>
        <time>2015-10-03T10:50:06Z</time>
      </trkpt>
      <trkpt lat="47.27961" lon="4.92844">
        <ele>553.51</ele>
        <time>2015-10-03T10:50:27Z</time>
      </trkpt>
      <trkpt lat="47.27943" lon="4.92838">
        <ele>550.72</ele>
        <time>2015-10-03T10:50:45Z</time>
      </trkpt>
      <trkpt lat="47.27926" lon="4.92846">
        <ele>565.87</ele>
        <time>2015-10-03T10:51:02Z</time>
      </trkpt>
      <trkpt lat="47.27913" lon="4.92865">
        <ele>563.12</ele>
        <time>2015-10-03T10:51:26Z</time>
      </trkpt>
      <trkpt lat="47.27914" lon="4.92892">
        <ele>561.5</ele>
        <time>2015-10-03T10:51:40Z</time>
      </trkpt>
      <trkpt lat="47.27912" lon="4.92923">
        <ele>562.45</ele>
        <time>2015-10-03T10:51:51Z</time>
      </trkpt>
      <trkpt lat="47.27925" lon="4.92896">
        <ele>559.87</ele>
        <time>2015-10-03T10:51:54Z</time>
      </trkpt>
      <trkpt lat="47.27917" lon="4.92934">
        <ele>552.25</ele>
        <time>2015-10-03T10:52:02Z</time>
      </trkpt>
      <trkpt lat="47.27935" lon="4.92937">
        <ele>554.38</ele>
        <time>2015-10-03T10:52:23Z</time>
      </trkpt>
      <trkpt lat="47.27945" lon="4.92959">
        <ele>549.35</ele>
        <time>2015-10-03T10:52:31Z</time>
      </trkpt>
      <trkpt lat="47.27961" lon="4.92977">
        <ele>555.46</ele>
        <time>2015-10-03T10:52:53Z</time>
      </trkpt>
      <trkpt lat="47.27975" lon="4.92995">
        <ele>558.74</ele>
        <time>2015-10-03T10:53:36Z</time>
      </trkpt>
      <trkpt lat="47.27985" lon="4.93018">
        <ele>556.93</ele>
        <time>2015-10-03T10:54:54Z</time>
      </trkpt>
      <trkpt lat="47.27994" lon="4.93042">
        <ele>564.17</ele>
        <time>2015-10-03T10:55:05Z</time>
      </trkpt>
      <trkpt lat="47.28007" lon="4.93061">
        <ele>562.68</ele>
        <time>2015-10-03T10:55:18Z</time>
      </trkpt>
      <trkpt lat="47.28023" lon="4.93076">
        <ele>555.48</ele>
        <time>2015-10-03T10:55:36Z</time>
      </trkpt>
      <trkpt lat="47.28038" lon="4.93091">
        <ele>555.54</ele>
        <time>2015-10-03T10:55:53Z</time>
      </trkpt>
      <trkpt lat="47.28048" lon="4.93115">
        <ele>558.53</ele>
        <time>2015-10-03T10:56:09Z</time>
      </trkpt>
      <trkpt lat="47.28061" lon="4.93136">
        <ele>559.5</ele>
        <time>2015-10-03T10:56:41Z</time>
      </trkpt>
      <trkpt lat="47.28076" lon="4.93154">
        <ele>562.14</ele>
        <time>2015-10-03T10:56:58Z</time>
      </trkpt>
      <trkpt lat="47.28095" lon="4.93145">
        <ele>556.06</ele>
        <time>2015-10-03T10:57:12Z</time>
      </trkpt>
      <trkpt lat="47.28114" lon="4.93145">
        <ele>553.61</ele>
        <time>2015-10-03T10:57:27Z</time>
      </trkpt>
      <trkpt lat="47.28128" lon="4.93165">
        <ele>552.68</ele>
        <time>2015-10-03T11:00:07Z</time>
      </trkpt>
      <trkpt lat="47.28144" lon="4.9318">
        <ele>552.85</ele>
        <time>2015-10-03T11:00:19Z</time>
      </trkpt>
      <trkpt lat="47.2816" lon="4.93194">
        <ele>555.11</ele>
        <time>2015-10-03T11:00:34Z</time>
      </trkpt>
      <trkpt lat="47.28175" lon="4.93214">
        <ele>557.96</ele>
        <time>2015-10-03T11:01:06Z</time>
      </trkpt>
      <trkpt lat="47.28185" lon="4.93237">
        <ele>562.93</ele>
        <time>2015-10-03T11:01:39Z</time>
      </trkpt>
      <trkpt lat="47.28186" lon="4.93264">
        <ele>561.67</ele>
        <time>2015-10-03T11:01:51Z</time>
      </trkpt>
      <trkpt lat="47.28186" lon="4.93291">
        <ele>563.18</ele>
        <time>2015-10-03T11:02:32Z</time>
      </trkpt>
      <trkpt lat="47.28198" lon="4.93311">
        <ele>559.13</ele>
        <time>2015-10-03T11:02:44Z</time>
      </trkpt>
      <trkpt lat="47.28211" lon="4.9333">
        <ele>554.46</ele>
        <time>2015-10-03T11:02:58Z</time>
      </trkpt>
      <trkpt lat="47.28225" lon="4.9335">
        <ele>561.8</ele>
        <time>2015-10-03T11:03:13Z</time>
      </trkpt>
      <trkpt lat="47.28239" lon="4.93367">
        <ele>563.37</ele>
        <time>2015-10-03T11:03:29Z</time>
      </trkpt>
      <trkpt lat="47.28256" lon="4.93378">
        <ele>550.68</ele>
        <time>2015-10-03T11:03:47Z</time>
      </trkpt>
      <trkpt lat="47.28271" lon="4.93395">
        <ele>540.85</ele>
        <time>2015-10-03T11:04:04Z</time>
      </trkpt>
      <trkpt lat="47.28286" lon="4.9341">
        <ele>537.94</ele>
        <time>2015-10-03T11:04:24Z</time>
      </trkpt>
      <trkpt lat="47.28304" lon="4.93418">
        <ele>539.97</ele>
        <time>2015-10-03T11:04:40Z</time>
      </trkpt>
      <trkpt lat="47.28322" lon="4.93419">
        <ele>549.68</ele>
        <time>2015-10-03T11:05:23Z</time>
      </trkpt>
      <trkpt lat="47.28341" lon="4.93416">
        <ele>541.43</ele>
        <time>2015-10-03T11:05:33Z</time>
      </trkpt>
      <trkpt lat="47.28359" lon="4.9342">
        <ele>539.71</ele>
        <time>2015-10-03T11:05:46Z</time>
      </trkpt>
      <trkpt lat="47.28377" lon="4.93423">
        <ele>546.13</ele>
        <time>2015-10-03T11:05:58Z</time>
      </trkpt>
      <trkpt lat="47.28394" lon="4.93414">
        <ele>543.35</ele>
        <time>2015-10-03T11:06:13Z</time>
      </trkpt>
      <trkpt lat="47.28409" lon="4.93395">
        <ele>545.43</ele>
        <time>2015-10-03T11:07:11Z</time>
      </trkpt>
      <trkpt lat="47.28427" lon="4.93385">
        <ele>554.19</ele>
        <time>2015-10-03T11:07:21Z</time>
      </trkpt>
      <trkpt lat="47.28445" lon="4.93387">
        <ele>560.55</ele>
        <time>2015-10-03T11:07:53Z</time>
      </trkpt>
      <trkpt lat="47.28465" lon="4.9338">
        <ele>560.99</ele>
        <time>2015-10-03T11:08:06Z</time>
      </trkpt>
      <trkpt lat="47.28484" lon="4.93368">
        <ele>551.7</ele>
        <time>2015-10-03T11:08:22Z</time>
      </trkpt>
      <trkpt lat="47.28503" lon="4.93371">
        <ele>550.55</ele>
        <time>2015-10-03T11:08:36Z</time>
      </trkpt>
      <trkpt lat="47.28523" lon="4.93374">
        <ele>554.56</ele>
        <time>2015-10-03T11:08:58Z</time>
      </trkpt>
      <trkpt lat="47.28542" lon="4.93373">
        <ele>567.66</ele>
        <time>2015-10-03T11:10:38Z</time>
      </trkpt>
      <trkpt lat="47.28574" lon="4.93375">
        <ele>556.93</ele>
        <time>2015-10-03T11:11:10Z</time>
      </trkpt>
      <trkpt lat="47.28659" lon="4.93376">
        <ele>562.93</ele>
        <time>2015-10-03T11:12:31Z</time>
      </trkpt>
      <trkpt lat="47.28678" lon="4.93381">
        <ele>573.25</ele>
        <time>2015-10-03T11:12:44Z</time>
      </trkpt>
      <trkpt lat="47.28697" lon="4.93391">
        <ele>566.28</ele>
        <time>2015-10-03T11:13:05Z</time>
      </trkpt>
      <trkpt lat="47.28729" lon="4.93416">
        <ele>550.93</ele>
        <time>2015-10-03T11:13:32Z</time>
      </trkpt>
      <trkpt lat="47.28746" lon="4.93411">
        <ele>546.87</ele>
        <time>2015-10-03T11:14:00Z</time>
      </trkpt>
      <trkpt lat="47.28765" lon="4.93415">
        <ele>551.12</ele>
        <time>2015-10-03T11:14:22Z</time>
      </trkpt>
      <trkpt lat="47.28776" lon="4.93437">
        <ele>564.52</ele>
        <time>2015-10-03T11:14:47Z</time>
      </trkpt>
      <trkpt lat="47.28796" lon="4.93439">
        <ele>567.3</ele>
        <time>2015-10-03T11:15:46Z</time>
      </trkpt>
      <trkpt lat="47.28811" lon="4.93423">
        <ele>560.27</ele>
        <time>2015-10-03T11:15:56Z</time>
      </trkpt>
      <trkpt lat="47.28826" lon="4.93408">
        <ele>554</ele>
        <time>2015-10-03T11:16:15Z</time>
      </trkpt>
      <trkpt lat="47.28843" lon="4.93389">
        <ele>549.04</ele>
        <time>2015-10-03T11:16:33Z</time>
      </trkpt>
      <trkpt lat="47.28837" lon="4.93363">
        <ele>576.05</ele>
        <time>2015-10-03T11:18:03Z</time>
      </trkpt>
      <trkpt lat="47.28848" lon="4.93341">
        <ele>568.94</ele>
        <time>2015-10-03T11:18:07Z</time>
      </trkpt>
      <trkpt lat="47.28856" lon="4.93317">
        <ele>563.1</ele>
        <time>2015-10-03T11:18:17Z</time>
      </trkpt>
      <trkpt lat="47.28846" lon="4.93294">
        <ele>562.97</ele>
        <time>2015-10-03T11:18:29Z</time>
      </trkpt>
      <trkpt lat="47.28845" lon="4.93268">
        <ele>569.41</ele>
        <time>2015-10-03T11:18:42Z</time>
      </trkpt>
      <trkpt lat="47.28836" lon="4.93244">
        <ele>567.42</ele>
        <time>2015-10-03T11:18:52Z</time>
      </trkpt>
      <trkpt lat="47.28843" lon="4.93218">
        <ele>566.28</ele>
        <time>2015-10-03T11:19:10Z</time>
      </trkpt>
      <trkpt lat="47.28846" lon="4.93191">
        <ele>570.84</ele>
        <time>2015-10-03T11:19:25Z</time>
      </trkpt>
      <trkpt lat="47.28845" lon="4.93165">
        <ele>552.49</ele>
        <time>2015-10-03T11:19:47Z</time>
      </trkpt>
      <trkpt lat="47.28841" lon="4.93138">
        <ele>554.67</ele>
        <time>2015-10-03T11:20:03Z</time>
      </trkpt>
      <trkpt lat="47.28849" lon="4.93112">
        <ele>554.62</ele>
        <time>2015-10-03T11:20:30Z</time>
      </trkpt>
      <trkpt lat="47.28848" lon="4.93085">
        <ele>561.65</ele>
        <time>2015-10-03T11:20:46Z</time>
      </trkpt>
      <trkpt lat="47.28838" lon="4.93061">
        <ele>561.96</ele>
        <time>2015-10-03T11:21:02Z</time>
      </trkpt>
      <trkpt lat="47.28842" lon="4.93034">
        <ele>562.85</ele>
        <time>2015-10-03T11:21:16Z</time>
      </trkpt>
      <trkpt lat="47.28839" lon="4.93006">
        <ele>566.89</ele>
        <time>2015-10-03T11:21:32Z</time>
      </trkpt>
      <trkpt lat="47.28841" lon="4.92979">
        <ele>566.9</ele>
        <time>2015-10-03T11:24:50Z</time>
      </trkpt>
      <trkpt lat="47.28837" lon="4.92951">
        <ele>560.99</ele>
        <time>2015-10-03T11:25:13Z</time>
      </trkpt>
      <trkpt lat="47.28806" lon="4.92894">
        <ele>549.93</ele>
        <time>2015-10-03T11:25:52Z</time>
      </trkpt>
      <trkpt lat="47.2876" lon="4.92816">
        <ele>552.93</ele>
        <time>2015-10-03T11:27:10Z</time>
      </trkpt>
      <trkpt lat="47.28771" lon="4.92793">
        <ele>558.17</ele>
        <time>2015-10-03T11:27:35Z</time>
      </trkpt>
      <trkpt lat="47.28789" lon="4.9278">
        <ele>562.93</ele>
        <time>2015-10-03T11:28:09Z</time>
      </trkpt>
      <trkpt lat="47.28803" lon="4.92798">
        <ele>561.85</ele>
        <time>2015-10-03T11:30:13Z</time>
      </trkpt>
      <trkpt lat="47.28818" lon="4.92812">
        <ele>564.93</ele>
        <time>2015-10-03T11:32:56Z</time>
      </trkpt>
      <trkpt lat="47.28837" lon="4.9282">
        <ele>549.27</ele>
        <time>2015-10-03T11:33:08Z</time>
      </trkpt>
      <trkpt lat="47.28859" lon="4.9283">
        <ele>536.65</ele>
        <time>2015-10-03T11:33:26Z</time>
      </trkpt>
      <trkpt lat="47.28877" lon="4.92833">
        <ele>533.03</ele>
        <time>2015-10-03T11:38:03Z</time>
      </trkpt>
      <trkpt lat="47.28895" lon="4.92845">
        <ele>521.93</ele>
        <time>2015-10-03T11:38:48Z</time>
      </trkpt>
      <trkpt lat="47.28915" lon="4.9284">
        <ele>517.46</ele>
        <time>2015-10-03T11:38:56Z</time>
      </trkpt>
      <trkpt lat="47.28926" lon="4.92866">
        <ele>514.93</ele>
        <time>2015-10-03T11:39:10Z</time>
      </trkpt>
      <trkpt lat="47.28935" lon="4.9289">
        <ele>520.23</ele>
        <time>2015-10-03T11:39:24Z</time>
      </trkpt>
      <trkpt lat="47.2894" lon="4.92922">
        <ele>539.5</ele>
        <time>2015-10-03T11:39:54Z</time>
      </trkpt>
      <trkpt lat="47.28956" lon="4.92935">
        <ele>523.63</ele>
        <time>2015-10-03T11:40:35Z</time>
      </trkpt>
      <trkpt lat="47.28968" lon="4.92955">
        <ele>528.34</ele>
        <time>2015-10-03T11:40:52Z</time>
      </trkpt>
      <trkpt lat="47.28977" lon="4.92979">
        <ele>534.97</ele>
        <time>2015-10-03T11:41:11Z</time>
      </trkpt>
      <trkpt lat="47.28986" lon="4.93004">
        <ele>522.9</ele>
        <time>2015-10-03T11:42:23Z</time>
      </trkpt>
      <trkpt lat="47.28996" lon="4.93031">
        <ele>513.17</ele>
        <time>2015-10-03T11:42:35Z</time>
      </trkpt>
      <trkpt lat="47.2901" lon="4.93048">
        <ele>505.08</ele>
        <time>2015-10-03T11:42:48Z</time>
      </trkpt>
      <trkpt lat="47.29011" lon="4.93067">
        <ele>499.93</ele>
        <time>2015-10-03T11:45:26Z</time>
      </trkpt>
      <trkpt lat="47.29011" lon="4.93067">
        <ele>499.93</ele>
        <time>2015-10-03T11:46:44Z</time>
      </trkpt>
      <trkpt lat="47.29011" lon="4.93067">
        <ele>499.93</ele>
        <time>2015-10-03T11:47:32Z</time>
      </trkpt>
      <trkpt lat="47.29012" lon="4.93067">
        <ele>500.93</ele>
        <time>2015-10-03T11:48:32Z</time>
      </trkpt>
      <trkpt lat="47.29012" lon="4.93068">
        <ele>500.93</ele>
        <time>2015-10-03T11:49:44Z</time>
      </trkpt>
      <trkpt lat="47.29028" lon="4.93056">
        <ele>495.8</ele>
        <time>2015-10-03T11:49:52Z</time>
      </trkpt>
      <trkpt lat="47.29036" lon="4.93083">
        <ele>493.26</ele>
        <time>2015-10-03T11:50:02Z</time>
      </trkpt>
      <trkpt lat="47.29045" lon="4.93106">
        <ele>497.35</ele>
        <time>2015-10-03T11:50:10Z</time>
      </trkpt>
      <trkpt lat="47.29054" lon="4.93132">
        <ele>501.68</ele>
        <time>2015-10-03T11:50:24Z</time>
      </trkpt>
      <trkpt lat="47.29069" lon="4.93163">
        <ele>497.93</ele>
        <time>2015-10-03T11:50:44Z</time>
      </trkpt>
      <trkpt lat="47.29078" lon="4.93186">
        <ele>494.33</ele>
        <time>2015-10-03T11:50:57Z</time>
      </trkpt>
      <trkpt lat="47.29087" lon="4.93209">
        <ele>491.7</ele>
        <time>2015-10-03T11:51:16Z</time>
      </trkpt>
      <trkpt lat="47.2909" lon="4.93238">
        <ele>491</ele>
        <time>2015-10-03T11:51:34Z</time>
      </trkpt>
      <trkpt lat="47.29102" lon="4.9326">
        <ele>489.36</ele>
        <time>2015-10-03T11:52:04Z</time>
      </trkpt>
      <trkpt lat="47.29109" lon="4.93287">
        <ele>493.67</ele>
        <time>2015-10-03T11:52:27Z</time>
      </trkpt>
      <trkpt lat="47.29106" lon="4.93315">
        <ele>488.54</ele>
        <time>2015-10-03T11:52:49Z</time>
      </trkpt>
      <trkpt lat="47.2912" lon="4.93333">
        <ele>488.96</ele>
        <time>2015-10-03T11:53:05Z</time>
      </trkpt>
      <trkpt lat="47.29126" lon="4.93359">
        <ele>491.46</ele>
        <time>2015-10-03T11:53:20Z</time>
      </trkpt>
      <trkpt lat="47.29126" lon="4.93385">
        <ele>489.46</ele>
        <time>2015-10-03T11:53:32Z</time>
      </trkpt>
      <trkpt lat="47.29135" lon="4.93411">
        <ele>484.77</ele>
        <time>2015-10-03T11:53:48Z</time>
      </trkpt>
      <trkpt lat="47.29137" lon="4.93437">
        <ele>483.27</ele>
        <time>2015-10-03T11:54:08Z</time>
      </trkpt>
      <trkpt lat="47.29143" lon="4.93463">
        <ele>478.98</ele>
        <time>2015-10-03T11:54:27Z</time>
      </trkpt>
      <trkpt lat="47.29154" lon="4.93487">
        <ele>480.22</ele>
        <time>2015-10-03T11:55:16Z</time>
      </trkpt>
      <trkpt lat="47.29161" lon="4.93515">
        <ele>481.21</ele>
        <time>2015-10-03T11:55:30Z</time>
      </trkpt>
      <trkpt lat="47.29168" lon="4.93541">
        <ele>483.34</ele>
        <time>2015-10-03T11:55:47Z</time>
      </trkpt>
      <trkpt lat="47.29183" lon="4.93561">
        <ele>476.12</ele>
        <time>2015-10-03T11:57:36Z</time>
      </trkpt>
      <trkpt lat="47.29215" lon="4.93628">
        <ele>469.93</ele>
        <time>2015-10-03T11:58:29Z</time>
      </trkpt>
      <trkpt lat="47.29223" lon="4.93652">
        <ele>470.74</ele>
        <time>2015-10-03T11:58:41Z</time>
      </trkpt>
      <trkpt lat="47.29231" lon="4.93676">
        <ele>474.45</ele>
        <time>2015-10-03T11:59:07Z</time>
      </trkpt>
      <trkpt lat="47.29247" lon="4.93717">
        <ele>468.93</ele>
        <time>2015-10-03T11:59:31Z</time>
      </trkpt>
      <trkpt lat="47.29259" lon="4.93739">
        <ele>464.23</ele>
        <time>2015-10-03T11:59:56Z</time>
      </trkpt>
      <trkpt lat="47.29267" lon="4.93768">
        <ele>464.93</ele>
        <time>2015-10-03T12:00:38Z</time>
      </trkpt>
      <trkpt lat="47.29278" lon="4.93791">
        <ele>464.67</ele>
        <time>2015-10-03T12:00:56Z</time>
      </trkpt>
      <trkpt lat="47.29293" lon="4.93808">
        <ele>468</ele>
        <time>2015-10-03T12:01:39Z</time>
      </trkpt>
      <trkpt lat="47.29308" lon="4.93793">
        <ele>461.66</ele>
        <time>2015-10-03T12:01:55Z</time>
      </trkpt>
      <trkpt lat="47.29326" lon="4.93789">
        <ele>469.17</ele>
        <time>2015-10-03T12:02:14Z</time>
      </trkpt>
      <trkpt lat="47.29344" lon="4.93783">
        <ele>470.37</ele>
        <time>2015-10-03T12:02:56Z</time>
      </trkpt>
      <trkpt lat="47.29363" lon="4.93787">
        <ele>473.31</ele>
        <time>2015-10-03T12:03:14Z</time>
      </trkpt>
      <trkpt lat="47.29381" lon="4.93786">
        <ele>472.41</ele>
        <time>2015-10-03T12:03:30Z</time>
      </trkpt>
      <trkpt lat="47.29399" lon="4.93778">
        <ele>475.92</ele>
        <time>2015-10-03T12:03:42Z</time>
      </trkpt>
      <trkpt lat="47.29416" lon="4.93792">
        <ele>477.34</ele>
        <time>2015-10-03T12:04:40Z</time>
      </trkpt>
      <trkpt lat="47.29434" lon="4.93791">
        <ele>476.75</ele>
        <time>2015-10-03T12:04:54Z</time>
      </trkpt>
      <trkpt lat="47.29442" lon="4.93815">
        <ele>482.08</ele>
        <time>2015-10-03T12:05:09Z</time>
      </trkpt>
      <trkpt lat="47.29455" lon="4.93835">
        <ele>478.47</ele>
        <time>2015-10-03T12:05:30Z</time>
      </trkpt>
      <trkpt lat="47.29467" lon="4.93858">
        <ele>478.34</ele>
        <time>2015-10-03T12:05:46Z</time>
      </trkpt>
      <trkpt lat="47.2948" lon="4.93876">
        <ele>475.2</ele>
        <time>2015-10-03T12:06:02Z</time>
      </trkpt>
      <trkpt lat="47.29493" lon="4.93896">
        <ele>478.38</ele>
        <time>2015-10-03T12:06:20Z</time>
      </trkpt>
      <trkpt lat="47.29508" lon="4.93913">
        <ele>474.8</ele>
        <time>2015-10-03T12:07:19Z</time>
      </trkpt>
      <trkpt lat="47.29527" lon="4.93916">
        <ele>473.37</ele>
        <time>2015-10-03T12:07:31Z</time>
      </trkpt>
      <trkpt lat="47.29543" lon="4.93928">
        <ele>471.48</ele>
        <time>2015-10-03T12:07:49Z</time>
      </trkpt>
      <trkpt lat="47.29559" lon="4.93944">
        <ele>469.24</ele>
        <time>2015-10-03T12:08:07Z</time>
      </trkpt>
      <trkpt lat="47.29578" lon="4.93948">
        <ele>467.37</ele>
        <time>2015-10-03T12:09:14Z</time>
      </trkpt>
      <trkpt lat="47.29583" lon="4.9392">
        <ele>469.35</ele>
        <time>2015-10-03T12:09:21Z</time>
      </trkpt>
      <trkpt lat="47.29589" lon="4.93893">
        <ele>468.13</ele>
        <time>2015-10-03T12:10:00Z</time>
      </trkpt>
      <trkpt lat="47.29594" lon="4.93866">
        <ele>468.64</ele>
        <time>2015-10-03T12:10:13Z</time>
      </trkpt>
      <trkpt lat="47.29593" lon="4.93839">
        <ele>471.49</ele>
        <time>2015-10-03T12:10:26Z</time>
      </trkpt>
      <trkpt lat="47.29599" lon="4.93814">
        <ele>472.18</ele>
        <time>2015-10-03T12:10:38Z</time>
      </trkpt>
      <trkpt lat="47.29618" lon="4.93812">
        <ele>480.57</ele>
        <time>2015-10-03T12:11:24Z</time>
      </trkpt>
      <trkpt lat="47.29636" lon="4.93809">
        <ele>482.04</ele>
        <time>2015-10-03T12:11:37Z</time>
      </trkpt>
    </trkseg>
  </trk>
</gpx>